sensor_id;sensor_type;location;lat;lon;timestamp;temperature;humidity
22436;DHT22;11385;50.822;4.324;2022-09-03T00:01:39;22.00;99.90
22436;DHT22;11385;50.822;4.324;2022-09-03T00:04:11;22.00;99.90
22436;DHT22;11385;50.822;4.324;2022-09-03T00:06:38;22.00;99.90
22436;DHT22;11385;50.822;4.324;2022-09-03T00:09:11;21.90;99.90
22436;DHT22;11385;50.822;4.324;2022-09-03T00:11:48;21.80;99.90
22436;DHT22;11385;50.822;4.324;2022-09-03T00:14:14;21.80;99.90
22436;DHT22;11385;50.822;4.324;2022-09-03T00:16:54;21.90;99.90
22436;DHT22;11385;50.822;4.324;2022-09-03T00:19:25;22.00;99.90
22436;DHT22;11385;50.822;4.324;2022-09-03T00:21:54;21.90;99.90
22436;DHT22;11385;50.822;4.324;2022-09-03T00:24:25;21.80;99.90
22436;DHT22;11385;50.822;4.324;2022-09-03T00:26:54;21.80;99.90
22436;DHT22;11385;50.822;4.324;2022-09-03T00:32:19;21.90;99.90
22436;DHT22;11385;50.822;4.324;2022-09-03T00:34:49;21.90;99.90
22436;DHT22;11385;50.822;4.324;2022-09-03T00:37:16;21.80;99.90
22436;DHT22;11385;50.822;4.324;2022-09-03T00:39:43;21.80;99.90
22436;DHT22;11385;50.822;4.324;2022-09-03T00:42:38;21.80;99.90
22436;DHT22;11385;50.822;4.324;2022-09-03T00:45:30;21.70;99.90
22436;DHT22;11385;50.822;4.324;2022-09-03T00:48:02;21.70;99.90
22436;DHT22;11385;50.822;4.324;2022-09-03T00:51:49;21.70;99.90
22436;DHT22;11385;50.822;4.324;2022-09-03T01:02:00;21.60;99.90
22436;DHT22;11385;50.822;4.324;2022-09-03T01:05:39;21.70;99.90
22436;DHT22;11385;50.822;4.324;2022-09-03T01:10:11;21.50;99.90
22436;DHT22;11385;50.822;4.324;2022-09-03T01:12:47;21.40;99.90
22436;DHT22;11385;50.822;4.324;2022-09-03T01:15:16;21.40;99.90
22436;DHT22;11385;50.822;4.324;2022-09-03T01:18:01;21.50;99.90
22436;DHT22;11385;50.822;4.324;2022-09-03T01:20:34;21.50;99.90
22436;DHT22;11385;50.822;4.324;2022-09-03T01:23:08;21.40;99.90
22436;DHT22;11385;50.822;4.324;2022-09-03T01:25:48;21.40;99.90
22436;DHT22;11385;50.822;4.324;2022-09-03T01:28:47;21.60;99.90
22436;DHT22;11385;50.822;4.324;2022-09-03T01:34:09;21.50;99.90
22436;DHT22;11385;50.822;4.324;2022-09-03T01:39:33;21.60;99.90
22436;DHT22;11385;50.822;4.324;2022-09-03T01:42:00;21.50;99.90
22436;DHT22;11385;50.822;4.324;2022-09-03T01:44:45;21.40;99.90
22436;DHT22;11385;50.822;4.324;2022-09-03T01:47:17;21.50;99.90
22436;DHT22;11385;50.822;4.324;2022-09-03T01:50:02;21.50;99.90
22436;DHT22;11385;50.822;4.324;2022-09-03T01:52:37;21.50;99.90
22436;DHT22;11385;50.822;4.324;2022-09-03T01:56:12;21.40;99.90
22436;DHT22;11385;50.822;4.324;2022-09-03T01:57:52;21.30;99.90
22436;DHT22;11385;50.822;4.324;2022-09-03T02:00:20;21.30;99.90
22436;DHT22;11385;50.822;4.324;2022-09-03T02:02:50;21.30;99.90
22436;DHT22;11385;50.822;4.324;2022-09-03T02:05:22;21.30;99.90
22436;DHT22;11385;50.822;4.324;2022-09-03T02:07:55;21.30;99.90
22436;DHT22;11385;50.822;4.324;2022-09-03T02:10:25;21.30;99.90
22436;DHT22;11385;50.822;4.324;2022-09-03T02:12:59;21.40;99.90
22436;DHT22;11385;50.822;4.324;2022-09-03T02:15:26;21.40;99.90
22436;DHT22;11385;50.822;4.324;2022-09-03T02:17:56;21.30;99.90
22436;DHT22;11385;50.822;4.324;2022-09-03T02:20:26;21.40;99.90
22436;DHT22;11385;50.822;4.324;2022-09-03T02:22:55;21.30;99.90
22436;DHT22;11385;50.822;4.324;2022-09-03T02:25:28;21.30;99.90
22436;DHT22;11385;50.822;4.324;2022-09-03T02:27:54;21.30;99.90
22436;DHT22;11385;50.822;4.324;2022-09-03T02:30:20;21.30;99.90
22436;DHT22;11385;50.822;4.324;2022-09-03T02:32:47;21.30;99.90
22436;DHT22;11385;50.822;4.324;2022-09-03T02:35:14;21.30;99.90
22436;DHT22;11385;50.822;4.324;2022-09-03T02:37:40;21.30;99.90
22436;DHT22;11385;50.822;4.324;2022-09-03T02:40:07;21.30;99.90
22436;DHT22;11385;50.822;4.324;2022-09-03T02:42:35;21.30;99.90
22436;DHT22;11385;50.822;4.324;2022-09-03T02:45:15;21.40;99.90
22436;DHT22;11385;50.822;4.324;2022-09-03T02:47:42;21.40;99.90
22436;DHT22;11385;50.822;4.324;2022-09-03T02:50:10;21.30;99.90
22436;DHT22;11385;50.822;4.324;2022-09-03T02:52:37;21.40;99.90
22436;DHT22;11385;50.822;4.324;2022-09-03T02:55:04;21.40;99.90
22436;DHT22;11385;50.822;4.324;2022-09-03T02:57:30;21.50;99.90
22436;DHT22;11385;50.822;4.324;2022-09-03T02:59:57;21.50;99.90
22436;DHT22;11385;50.822;4.324;2022-09-03T03:02:24;21.40;99.90
22436;DHT22;11385;50.822;4.324;2022-09-03T03:04:51;21.30;99.90
22436;DHT22;11385;50.822;4.324;2022-09-03T03:07:17;21.30;99.90
22436;DHT22;11385;50.822;4.324;2022-09-03T03:09:44;21.30;99.90
22436;DHT22;11385;50.822;4.324;2022-09-03T03:12:11;21.40;99.90
22436;DHT22;11385;50.822;4.324;2022-09-03T03:14:38;21.40;99.90
22436;DHT22;11385;50.822;4.324;2022-09-03T03:17:04;21.40;99.90
22436;DHT22;11385;50.822;4.324;2022-09-03T03:19:31;21.40;99.90
22436;DHT22;11385;50.822;4.324;2022-09-03T03:21:57;21.40;99.90
22436;DHT22;11385;50.822;4.324;2022-09-03T03:24:24;21.40;99.90
22436;DHT22;11385;50.822;4.324;2022-09-03T03:26:54;21.50;99.90
22436;DHT22;11385;50.822;4.324;2022-09-03T03:29:23;21.40;99.90
22436;DHT22;11385;50.822;4.324;2022-09-03T03:31:50;21.30;99.90
22436;DHT22;11385;50.822;4.324;2022-09-03T03:34:17;21.00;99.90
22436;DHT22;11385;50.822;4.324;2022-09-03T03:36:44;20.90;99.90
22436;DHT22;11385;50.822;4.324;2022-09-03T03:39:10;20.60;99.90
22436;DHT22;11385;50.822;4.324;2022-09-03T03:41:37;20.40;99.90
22436;DHT22;11385;50.822;4.324;2022-09-03T03:44:06;20.20;99.90
22436;DHT22;11385;50.822;4.324;2022-09-03T03:46:37;20.10;99.90
22436;DHT22;11385;50.822;4.324;2022-09-03T03:49:05;19.90;99.90
22436;DHT22;11385;50.822;4.324;2022-09-03T03:51:34;19.80;99.90
22436;DHT22;11385;50.822;4.324;2022-09-03T03:54:00;19.60;99.90
22436;DHT22;11385;50.822;4.324;2022-09-03T03:56:27;19.50;99.90
22436;DHT22;11385;50.822;4.324;2022-09-03T03:58:54;19.40;99.90
22436;DHT22;11385;50.822;4.324;2022-09-03T04:01:24;19.30;99.90
22436;DHT22;11385;50.822;4.324;2022-09-03T04:03:53;19.20;99.90
22436;DHT22;11385;50.822;4.324;2022-09-03T04:06:20;19.20;99.90
22436;DHT22;11385;50.822;4.324;2022-09-03T04:08:49;19.20;99.90
22436;DHT22;11385;50.822;4.324;2022-09-03T04:11:18;19.20;99.90
22436;DHT22;11385;50.822;4.324;2022-09-03T04:13:46;19.30;99.90
22436;DHT22;11385;50.822;4.324;2022-09-03T04:16:15;19.40;99.90
22436;DHT22;11385;50.822;4.324;2022-09-03T04:18:43;19.40;99.90
22436;DHT22;11385;50.822;4.324;2022-09-03T04:21:13;19.40;99.90
22436;DHT22;11385;50.822;4.324;2022-09-03T04:23:43;19.50;99.90
22436;DHT22;11385;50.822;4.324;2022-09-03T04:26:12;19.50;99.90
22436;DHT22;11385;50.822;4.324;2022-09-03T04:28:39;19.40;99.90
22436;DHT22;11385;50.822;4.324;2022-09-03T04:31:09;19.50;99.90
22436;DHT22;11385;50.822;4.324;2022-09-03T04:33:36;19.60;99.90
22436;DHT22;11385;50.822;4.324;2022-09-03T04:36:07;19.60;99.90
22436;DHT22;11385;50.822;4.324;2022-09-03T04:38:35;19.50;99.90
22436;DHT22;11385;50.822;4.324;2022-09-03T04:41:03;19.60;99.90
22436;DHT22;11385;50.822;4.324;2022-09-03T04:43:31;19.60;99.90
22436;DHT22;11385;50.822;4.324;2022-09-03T04:45:59;19.70;99.90
22436;DHT22;11385;50.822;4.324;2022-09-03T04:48:28;19.80;99.90
22436;DHT22;11385;50.822;4.324;2022-09-03T04:51:04;19.90;99.90
22436;DHT22;11385;50.822;4.324;2022-09-03T04:53:33;19.90;99.90
22436;DHT22;11385;50.822;4.324;2022-09-03T04:56:00;19.90;99.90
22436;DHT22;11385;50.822;4.324;2022-09-03T04:58:27;19.80;99.90
22436;DHT22;11385;50.822;4.324;2022-09-03T05:00:54;19.80;99.90
22436;DHT22;11385;50.822;4.324;2022-09-03T05:03:21;19.80;99.90
22436;DHT22;11385;50.822;4.324;2022-09-03T05:05:53;20.00;99.90
22436;DHT22;11385;50.822;4.324;2022-09-03T05:08:20;20.20;99.90
22436;DHT22;11385;50.822;4.324;2022-09-03T05:10:47;20.30;99.90
22436;DHT22;11385;50.822;4.324;2022-09-03T05:13:14;20.20;99.90
22436;DHT22;11385;50.822;4.324;2022-09-03T05:15:41;20.30;99.90
22436;DHT22;11385;50.822;4.324;2022-09-03T05:18:09;20.30;99.90
22436;DHT22;11385;50.822;4.324;2022-09-03T05:20:35;20.20;99.90
22436;DHT22;11385;50.822;4.324;2022-09-03T05:23:02;20.20;99.90
22436;DHT22;11385;50.822;4.324;2022-09-03T05:25:29;20.30;99.90
22436;DHT22;11385;50.822;4.324;2022-09-03T05:27:58;20.40;99.90
22436;DHT22;11385;50.822;4.324;2022-09-03T05:30:24;20.30;99.90
22436;DHT22;11385;50.822;4.324;2022-09-03T05:32:51;20.30;99.90
22436;DHT22;11385;50.822;4.324;2022-09-03T05:35:18;20.40;99.90
22436;DHT22;11385;50.822;4.324;2022-09-03T05:37:44;20.30;99.90
22436;DHT22;11385;50.822;4.324;2022-09-03T05:40:11;20.40;99.90
22436;DHT22;11385;50.822;4.324;2022-09-03T05:42:38;20.40;99.90
22436;DHT22;11385;50.822;4.324;2022-09-03T05:45:07;20.40;99.90
22436;DHT22;11385;50.822;4.324;2022-09-03T05:47:37;20.50;99.90
22436;DHT22;11385;50.822;4.324;2022-09-03T05:50:07;20.60;99.90
22436;DHT22;11385;50.822;4.324;2022-09-03T05:52:36;20.60;99.90
22436;DHT22;11385;50.822;4.324;2022-09-03T05:55:03;20.50;99.90
22436;DHT22;11385;50.822;4.324;2022-09-03T05:57:30;20.50;99.90
22436;DHT22;11385;50.822;4.324;2022-09-03T05:59:57;20.60;99.90
22436;DHT22;11385;50.822;4.324;2022-09-03T06:02:25;20.70;99.90
22436;DHT22;11385;50.822;4.324;2022-09-03T06:04:52;20.70;99.90
22436;DHT22;11385;50.822;4.324;2022-09-03T06:07:19;20.70;99.90
22436;DHT22;11385;50.822;4.324;2022-09-03T06:09:46;20.70;99.90
22436;DHT22;11385;50.822;4.324;2022-09-03T06:12:13;20.70;99.90
22436;DHT22;11385;50.822;4.324;2022-09-03T06:14:39;20.70;99.90
22436;DHT22;11385;50.822;4.324;2022-09-03T06:17:06;20.80;99.90
22436;DHT22;11385;50.822;4.324;2022-09-03T06:19:35;20.80;99.90
22436;DHT22;11385;50.822;4.324;2022-09-03T06:22:01;20.70;99.90
22436;DHT22;11385;50.822;4.324;2022-09-03T06:24:28;20.80;99.90
22436;DHT22;11385;50.822;4.324;2022-09-03T06:26:55;20.80;99.90
22436;DHT22;11385;50.822;4.324;2022-09-03T06:29:22;20.90;99.90
22436;DHT22;11385;50.822;4.324;2022-09-03T06:31:48;20.90;99.90
22436;DHT22;11385;50.822;4.324;2022-09-03T06:34:16;21.00;99.90
22436;DHT22;11385;50.822;4.324;2022-09-03T06:36:44;21.00;99.90
22436;DHT22;11385;50.822;4.324;2022-09-03T06:39:11;21.10;99.90
22436;DHT22;11385;50.822;4.324;2022-09-03T06:41:37;21.10;99.90
22436;DHT22;11385;50.822;4.324;2022-09-03T06:44:06;21.10;99.90
22436;DHT22;11385;50.822;4.324;2022-09-03T06:46:35;21.20;99.90
22436;DHT22;11385;50.822;4.324;2022-09-03T06:49:04;21.20;99.90
22436;DHT22;11385;50.822;4.324;2022-09-03T06:51:32;21.30;99.90
22436;DHT22;11385;50.822;4.324;2022-09-03T06:54:01;21.40;99.90
22436;DHT22;11385;50.822;4.324;2022-09-03T06:56:29;21.50;99.90
22436;DHT22;11385;50.822;4.324;2022-09-03T06:58:58;21.50;99.90
22436;DHT22;11385;50.822;4.324;2022-09-03T07:01:28;21.60;99.90
22436;DHT22;11385;50.822;4.324;2022-09-03T07:03:58;21.70;99.90
22436;DHT22;11385;50.822;4.324;2022-09-03T07:06:28;21.60;99.90
22436;DHT22;11385;50.822;4.324;2022-09-03T07:08:55;21.70;99.90
22436;DHT22;11385;50.822;4.324;2022-09-03T07:11:24;21.70;99.90
22436;DHT22;11385;50.822;4.324;2022-09-03T07:13:52;21.80;99.90
22436;DHT22;11385;50.822;4.324;2022-09-03T07:16:23;21.70;99.90
22436;DHT22;11385;50.822;4.324;2022-09-03T07:18:51;21.70;99.90
22436;DHT22;11385;50.822;4.324;2022-09-03T07:21:20;21.80;99.90
22436;DHT22;11385;50.822;4.324;2022-09-03T07:23:48;21.90;99.90
22436;DHT22;11385;50.822;4.324;2022-09-03T07:26:21;21.80;99.90
22436;DHT22;11385;50.822;4.324;2022-09-03T07:28:50;21.80;99.90
22436;DHT22;11385;50.822;4.324;2022-09-03T07:31:23;21.90;99.90
22436;DHT22;11385;50.822;4.324;2022-09-03T07:33:55;21.90;99.90
22436;DHT22;11385;50.822;4.324;2022-09-03T07:36:23;21.90;99.90
22436;DHT22;11385;50.822;4.324;2022-09-03T07:38:50;22.10;99.90
22436;DHT22;11385;50.822;4.324;2022-09-03T07:41:18;22.10;99.90
22436;DHT22;11385;50.822;4.324;2022-09-03T07:43:46;22.10;99.90
22436;DHT22;11385;50.822;4.324;2022-09-03T07:46:18;22.20;99.90
22436;DHT22;11385;50.822;4.324;2022-09-03T07:48:50;22.20;99.90
22436;DHT22;11385;50.822;4.324;2022-09-03T07:51:19;22.20;99.90
22436;DHT22;11385;50.822;4.324;2022-09-03T07:53:47;22.30;99.90
22436;DHT22;11385;50.822;4.324;2022-09-03T07:56:14;22.10;99.90
22436;DHT22;11385;50.822;4.324;2022-09-03T07:58:41;22.40;99.90
22436;DHT22;11385;50.822;4.324;2022-09-03T08:01:15;22.60;99.90
22436;DHT22;11385;50.822;4.324;2022-09-03T08:03:43;22.60;99.90
22436;DHT22;11385;50.822;4.324;2022-09-03T08:06:11;22.80;99.90
22436;DHT22;11385;50.822;4.324;2022-09-03T08:08:38;22.80;99.90
22436;DHT22;11385;50.822;4.324;2022-09-03T08:11:07;23.10;99.90
22436;DHT22;11385;50.822;4.324;2022-09-03T08:13:37;23.00;99.90
22436;DHT22;11385;50.822;4.324;2022-09-03T08:16:06;23.30;99.90
22436;DHT22;11385;50.822;4.324;2022-09-03T08:18:35;23.50;99.90
22436;DHT22;11385;50.822;4.324;2022-09-03T08:21:05;23.50;99.90
22436;DHT22;11385;50.822;4.324;2022-09-03T08:23:36;23.30;99.90
22436;DHT22;11385;50.822;4.324;2022-09-03T08:26:03;23.30;99.90
22436;DHT22;11385;50.822;4.324;2022-09-03T08:28:31;23.30;99.90
22436;DHT22;11385;50.822;4.324;2022-09-03T08:31:06;23.10;99.90
22436;DHT22;11385;50.822;4.324;2022-09-03T08:33:34;23.30;99.90
22436;DHT22;11385;50.822;4.324;2022-09-03T08:36:07;23.30;99.90
22436;DHT22;11385;50.822;4.324;2022-09-03T08:38:35;23.20;99.90
22436;DHT22;11385;50.822;4.324;2022-09-03T08:41:06;23.40;99.90
22436;DHT22;11385;50.822;4.324;2022-09-03T08:46:09;23.40;99.90
22436;DHT22;11385;50.822;4.324;2022-09-03T08:48:36;23.60;99.90
22436;DHT22;11385;50.822;4.324;2022-09-03T08:51:05;24.00;99.90
22436;DHT22;11385;50.822;4.324;2022-09-03T08:53:39;24.20;99.90
22436;DHT22;11385;50.822;4.324;2022-09-03T08:56:08;24.10;99.90
22436;DHT22;11385;50.822;4.324;2022-09-03T08:58:36;23.80;99.90
22436;DHT22;11385;50.822;4.324;2022-09-03T09:04:27;24.20;99.90
22436;DHT22;11385;50.822;4.324;2022-09-03T09:06:58;24.00;99.90
22436;DHT22;11385;50.822;4.324;2022-09-03T09:09:34;24.10;99.90
22436;DHT22;11385;50.822;4.324;2022-09-03T09:12:14;24.20;99.90
22436;DHT22;11385;50.822;4.324;2022-09-03T09:20:39;23.90;99.90
22436;DHT22;11385;50.822;4.324;2022-09-03T09:23:09;24.00;99.90
22436;DHT22;11385;50.822;4.324;2022-09-03T09:25:46;23.80;99.90
22436;DHT22;11385;50.822;4.324;2022-09-03T09:28:25;23.70;99.90
22436;DHT22;11385;50.822;4.324;2022-09-03T09:30:54;23.80;99.90
22436;DHT22;11385;50.822;4.324;2022-09-03T09:33:22;23.80;99.90
22436;DHT22;11385;50.822;4.324;2022-09-03T09:35:50;24.00;99.90
22436;DHT22;11385;50.822;4.324;2022-09-03T09:38:30;23.70;99.90
22436;DHT22;11385;50.822;4.324;2022-09-03T09:43:31;24.10;99.90
22436;DHT22;11385;50.822;4.324;2022-09-03T09:46:05;24.20;99.90
22436;DHT22;11385;50.822;4.324;2022-09-03T09:48:30;24.70;99.90
22436;DHT22;11385;50.822;4.324;2022-09-03T09:51:22;24.50;99.90
22436;DHT22;11385;50.822;4.324;2022-09-03T09:56:28;25.00;99.90
22436;DHT22;11385;50.822;4.324;2022-09-03T09:59:03;25.40;99.90
22436;DHT22;11385;50.822;4.324;2022-09-03T10:01:30;25.60;99.90
22436;DHT22;11385;50.822;4.324;2022-09-03T10:04:00;25.60;99.90
22436;DHT22;11385;50.822;4.324;2022-09-03T10:06:29;25.50;99.90
22436;DHT22;11385;50.822;4.324;2022-09-03T10:09:07;25.60;99.90
22436;DHT22;11385;50.822;4.324;2022-09-03T10:11:36;25.00;99.90
22436;DHT22;11385;50.822;4.324;2022-09-03T10:14:08;25.40;99.90
22436;DHT22;11385;50.822;4.324;2022-09-03T10:16:38;26.00;99.90
22436;DHT22;11385;50.822;4.324;2022-09-03T10:19:12;25.80;99.90
22436;DHT22;11385;50.822;4.324;2022-09-03T10:21:46;26.30;99.90
22436;DHT22;11385;50.822;4.324;2022-09-03T10:24:31;26.60;99.90
22436;DHT22;11385;50.822;4.324;2022-09-03T10:26:59;26.90;99.90
22436;DHT22;11385;50.822;4.324;2022-09-03T10:29:26;27.10;99.90
22436;DHT22;11385;50.822;4.324;2022-09-03T10:32:03;26.90;99.90
22436;DHT22;11385;50.822;4.324;2022-09-03T10:34:55;26.80;99.90
22436;DHT22;11385;50.822;4.324;2022-09-03T10:37:26;26.50;99.90
22436;DHT22;11385;50.822;4.324;2022-09-03T10:40:01;26.40;99.90
22436;DHT22;11385;50.822;4.324;2022-09-03T10:42:34;26.60;99.90
22436;DHT22;11385;50.822;4.324;2022-09-03T10:45:17;26.80;99.90
22436;DHT22;11385;50.822;4.324;2022-09-03T10:47:57;26.80;99.90
22436;DHT22;11385;50.822;4.324;2022-09-03T10:50:22;26.90;99.90
22436;DHT22;11385;50.822;4.324;2022-09-03T10:53:01;27.20;99.90
22436;DHT22;11385;50.822;4.324;2022-09-03T10:55:47;27.60;99.90
22436;DHT22;11385;50.822;4.324;2022-09-03T11:01:01;26.70;99.90
22436;DHT22;11385;50.822;4.324;2022-09-03T11:03:42;26.90;99.90
22436;DHT22;11385;50.822;4.324;2022-09-03T11:06:14;26.70;99.90
22436;DHT22;11385;50.822;4.324;2022-09-03T11:09:55;26.90;99.90
22436;DHT22;11385;50.822;4.324;2022-09-03T11:11:39;27.60;99.90
22436;DHT22;11385;50.822;4.324;2022-09-03T11:14:09;28.00;99.90
22436;DHT22;11385;50.822;4.324;2022-09-03T11:16:40;27.80;99.90
22436;DHT22;11385;50.822;4.324;2022-09-03T11:19:10;27.70;99.90
22436;DHT22;11385;50.822;4.324;2022-09-03T11:21:38;27.40;99.90
22436;DHT22;11385;50.822;4.324;2022-09-03T11:24:21;27.20;99.90
22436;DHT22;11385;50.822;4.324;2022-09-03T11:26:54;27.20;99.90
22436;DHT22;11385;50.822;4.324;2022-09-03T11:29:31;27.00;99.90
22436;DHT22;11385;50.822;4.324;2022-09-03T11:32:03;26.90;99.90
22436;DHT22;11385;50.822;4.324;2022-09-03T11:34:44;26.80;99.90
22436;DHT22;11385;50.822;4.324;2022-09-03T11:37:06;27.00;99.90
22436;DHT22;11385;50.822;4.324;2022-09-03T11:39:35;27.20;99.90
22436;DHT22;11385;50.822;4.324;2022-09-03T11:42:25;27.30;99.90
22436;DHT22;11385;50.822;4.324;2022-09-03T11:44:50;27.60;99.90
22436;DHT22;11385;50.822;4.324;2022-09-03T11:47:24;27.40;99.90
22436;DHT22;11385;50.822;4.324;2022-09-03T11:50:03;27.50;99.90
22436;DHT22;11385;50.822;4.324;2022-09-03T11:52:26;27.30;99.90
22436;DHT22;11385;50.822;4.324;2022-09-03T11:54:54;27.30;99.90
22436;DHT22;11385;50.822;4.324;2022-09-03T11:57:29;26.80;99.90
22436;DHT22;11385;50.822;4.324;2022-09-03T12:00:08;26.60;99.90
22436;DHT22;11385;50.822;4.324;2022-09-03T12:02:43;26.90;99.90
22436;DHT22;11385;50.822;4.324;2022-09-03T12:05:24;26.90;99.90
22436;DHT22;11385;50.822;4.324;2022-09-03T12:08:07;26.60;99.90
22436;DHT22;11385;50.822;4.324;2022-09-03T12:10:41;26.40;99.90
22436;DHT22;11385;50.822;4.324;2022-09-03T12:13:24;26.70;99.90
22436;DHT22;11385;50.822;4.324;2022-09-03T12:18:29;26.30;99.90
22436;DHT22;11385;50.822;4.324;2022-09-03T12:21:03;26.40;99.90
22436;DHT22;11385;50.822;4.324;2022-09-03T12:23:39;26.80;99.90
22436;DHT22;11385;50.822;4.324;2022-09-03T12:26:06;27.10;99.90
22436;DHT22;11385;50.822;4.324;2022-09-03T12:28:36;27.50;99.90
22436;DHT22;11385;50.822;4.324;2022-09-03T12:31:09;27.70;99.90
22436;DHT22;11385;50.822;4.324;2022-09-03T12:33:40;27.30;99.90
22436;DHT22;11385;50.822;4.324;2022-09-03T12:36:08;27.50;99.90
22436;DHT22;11385;50.822;4.324;2022-09-03T12:38:35;28.10;99.90
22436;DHT22;11385;50.822;4.324;2022-09-03T12:41:01;28.60;99.90
22436;DHT22;11385;50.822;4.324;2022-09-03T12:43:28;28.10;99.90
22436;DHT22;11385;50.822;4.324;2022-09-03T12:45:55;28.30;99.90
22436;DHT22;11385;50.822;4.324;2022-09-03T12:48:22;28.40;99.90
22436;DHT22;11385;50.822;4.324;2022-09-03T12:51:00;28.90;99.90
22436;DHT22;11385;50.822;4.324;2022-09-03T12:53:23;29.00;99.90
22436;DHT22;11385;50.822;4.324;2022-09-03T12:55:53;29.40;99.90
22436;DHT22;11385;50.822;4.324;2022-09-03T12:58:26;29.30;99.90
22436;DHT22;11385;50.822;4.324;2022-09-03T13:00:56;28.90;99.90
22436;DHT22;11385;50.822;4.324;2022-09-03T13:03:28;28.80;99.90
22436;DHT22;11385;50.822;4.324;2022-09-03T13:06:00;28.50;99.90
22436;DHT22;11385;50.822;4.324;2022-09-03T13:08:31;27.60;99.90
22436;DHT22;11385;50.822;4.324;2022-09-03T13:11:00;27.40;99.90
22436;DHT22;11385;50.822;4.324;2022-09-03T13:13:32;28.00;99.90
22436;DHT22;11385;50.822;4.324;2022-09-03T13:16:13;28.30;99.90
22436;DHT22;11385;50.822;4.324;2022-09-03T13:19:16;28.60;99.90
22436;DHT22;11385;50.822;4.324;2022-09-03T13:24:24;28.50;99.90
22436;DHT22;11385;50.822;4.324;2022-09-03T13:27:08;28.90;99.90
22436;DHT22;11385;50.822;4.324;2022-09-03T13:29:46;28.80;99.90
22436;DHT22;11385;50.822;4.324;2022-09-03T13:32:16;28.90;99.90
22436;DHT22;11385;50.822;4.324;2022-09-03T13:34:50;29.00;99.90
22436;DHT22;11385;50.822;4.324;2022-09-03T13:37:24;29.00;99.90
22436;DHT22;11385;50.822;4.324;2022-09-03T13:39:57;29.10;99.90
22436;DHT22;11385;50.822;4.324;2022-09-03T13:42:32;29.30;99.90
22436;DHT22;11385;50.822;4.324;2022-09-03T13:45:04;29.50;99.90
22436;DHT22;11385;50.822;4.324;2022-09-03T13:47:39;28.60;99.90
22436;DHT22;11385;50.822;4.324;2022-09-03T13:50:16;28.40;99.90
22436;DHT22;11385;50.822;4.324;2022-09-03T13:52:51;28.50;99.90
22436;DHT22;11385;50.822;4.324;2022-09-03T13:55:24;28.60;99.90
22436;DHT22;11385;50.822;4.324;2022-09-03T13:57:53;28.10;99.90
22436;DHT22;11385;50.822;4.324;2022-09-03T14:00:28;28.20;99.90
22436;DHT22;11385;50.822;4.324;2022-09-03T14:03:05;28.20;99.90
22436;DHT22;11385;50.822;4.324;2022-09-03T14:08:34;28.50;99.90
22436;DHT22;11385;50.822;4.324;2022-09-03T14:11:30;28.50;99.90
22436;DHT22;11385;50.822;4.324;2022-09-03T14:17:12;28.10;99.90
22436;DHT22;11385;50.822;4.324;2022-09-03T14:19:45;28.10;99.90
22436;DHT22;11385;50.822;4.324;2022-09-03T14:22:18;27.70;99.90
22436;DHT22;11385;50.822;4.324;2022-09-03T14:24:51;27.50;99.90
22436;DHT22;11385;50.822;4.324;2022-09-03T14:27:25;27.40;99.90
22436;DHT22;11385;50.822;4.324;2022-09-03T14:29:59;27.60;99.90
22436;DHT22;11385;50.822;4.324;2022-09-03T14:35:17;27.40;99.90
22436;DHT22;11385;50.822;4.324;2022-09-03T14:40:29;27.50;99.90
22436;DHT22;11385;50.822;4.324;2022-09-03T14:43:05;27.50;99.90
22436;DHT22;11385;50.822;4.324;2022-09-03T14:48:31;27.30;99.90
22436;DHT22;11385;50.822;4.324;2022-09-03T14:51:08;27.20;99.90
22436;DHT22;11385;50.822;4.324;2022-09-03T15:02:17;27.00;99.90
22436;DHT22;11385;50.822;4.324;2022-09-03T15:07:33;26.10;99.90
22436;DHT22;11385;50.822;4.324;2022-09-03T15:10:07;26.10;99.90
22436;DHT22;11385;50.822;4.324;2022-09-03T15:12:37;26.20;99.90
22436;DHT22;11385;50.822;4.324;2022-09-03T15:15:17;26.40;99.90
22436;DHT22;11385;50.822;4.324;2022-09-03T15:20:25;27.00;99.90
22436;DHT22;11385;50.822;4.324;2022-09-03T15:23:03;26.80;99.90
22436;DHT22;11385;50.822;4.324;2022-09-03T15:26:02;27.10;99.90
22436;DHT22;11385;50.822;4.324;2022-09-03T15:29:02;27.30;99.90
22436;DHT22;11385;50.822;4.324;2022-09-03T15:31:37;27.40;99.90
22436;DHT22;11385;50.822;4.324;2022-09-03T15:37:12;25.70;99.90
22436;DHT22;11385;50.822;4.324;2022-09-03T15:39:41;24.90;99.90
22436;DHT22;11385;50.822;4.324;2022-09-03T15:42:17;24.40;99.90
22436;DHT22;11385;50.822;4.324;2022-09-03T15:44:47;23.90;99.90
22436;DHT22;11385;50.822;4.324;2022-09-03T15:49:58;23.40;99.90
22436;DHT22;11385;50.822;4.324;2022-09-03T15:52:36;23.50;99.90
22436;DHT22;11385;50.822;4.324;2022-09-03T15:55:10;23.60;99.90
22436;DHT22;11385;50.822;4.324;2022-09-03T15:57:55;23.80;99.90
22436;DHT22;11385;50.822;4.324;2022-09-03T16:00:27;23.80;99.90
22436;DHT22;11385;50.822;4.324;2022-09-03T16:03:01;23.90;99.90
22436;DHT22;11385;50.822;4.324;2022-09-03T16:05:39;24.20;99.90
22436;DHT22;11385;50.822;4.324;2022-09-03T16:08:27;24.60;99.90
22436;DHT22;11385;50.822;4.324;2022-09-03T16:11:05;24.80;99.90
22436;DHT22;11385;50.822;4.324;2022-09-03T16:13:43;24.90;99.90
22436;DHT22;11385;50.822;4.324;2022-09-03T16:16:11;24.80;99.90
22436;DHT22;11385;50.822;4.324;2022-09-03T16:18:51;24.70;99.90
22436;DHT22;11385;50.822;4.324;2022-09-03T16:21:25;24.60;99.90
22436;DHT22;11385;50.822;4.324;2022-09-03T16:23:58;24.60;99.90
22436;DHT22;11385;50.822;4.324;2022-09-03T16:26:33;24.60;99.90
22436;DHT22;11385;50.822;4.324;2022-09-03T16:29:07;24.50;99.90
22436;DHT22;11385;50.822;4.324;2022-09-03T16:34:47;24.80;99.90
22436;DHT22;11385;50.822;4.324;2022-09-03T16:37:22;25.10;99.90
22436;DHT22;11385;50.822;4.324;2022-09-03T16:40:13;25.10;99.90
22436;DHT22;11385;50.822;4.324;2022-09-03T16:42:51;25.10;99.90
22436;DHT22;11385;50.822;4.324;2022-09-03T16:45:45;25.00;99.90
22436;DHT22;11385;50.822;4.324;2022-09-03T16:48:36;25.20;99.90
22436;DHT22;11385;50.822;4.324;2022-09-03T16:53:57;25.50;99.90
22436;DHT22;11385;50.822;4.324;2022-09-03T16:57:01;25.30;99.90
22436;DHT22;11385;50.822;4.324;2022-09-03T17:02:16;24.70;99.90
22436;DHT22;11385;50.822;4.324;2022-09-03T17:07:39;24.20;99.90
22436;DHT22;11385;50.822;4.324;2022-09-03T17:15:51;23.40;99.90
22436;DHT22;11385;50.822;4.324;2022-09-03T17:18:26;23.20;99.90
22436;DHT22;11385;50.822;4.324;2022-09-03T17:21:06;23.20;99.90
22436;DHT22;11385;50.822;4.324;2022-09-03T17:23:53;23.10;99.90
22436;DHT22;11385;50.822;4.324;2022-09-03T17:26:28;23.00;99.90
22436;DHT22;11385;50.822;4.324;2022-09-03T17:29:05;23.50;99.90
22436;DHT22;11385;50.822;4.324;2022-09-03T17:31:39;23.60;99.90
22436;DHT22;11385;50.822;4.324;2022-09-03T17:34:26;23.90;99.90
22436;DHT22;11385;50.822;4.324;2022-09-03T17:37:04;24.10;99.90